createdAt,value
2018-12-18T00:00:42.299Z,6.90
2018-12-18T00:03:09.838Z,6.90
2018-12-18T00:05:37.283Z,7.00
2018-12-18T00:08:04.901Z,7.00
2018-12-18T00:10:38.081Z,7.00
2018-12-18T00:13:05.547Z,7.00
2018-12-18T00:15:33.010Z,7.00
2018-12-18T00:18:00.491Z,7.00
2018-12-18T00:20:27.980Z,7.10
2018-12-18T00:22:55.501Z,7.20
2018-12-18T00:25:23.076Z,7.20
2018-12-18T00:27:50.563Z,7.20
2018-12-18T00:30:18.061Z,7.20
2018-12-18T00:32:45.532Z,7.20
2018-12-18T00:35:12.990Z,7.20
2018-12-18T00:37:40.515Z,7.20
2018-12-18T00:40:08.113Z,7.10
2018-12-18T00:42:35.589Z,7.20
2018-12-18T00:45:03.241Z,7.20
2018-12-18T00:47:30.703Z,7.30
2018-12-18T00:49:58.155Z,7.20
2018-12-18T00:52:25.642Z,7.20
2018-12-18T00:54:53.105Z,7.20
2018-12-18T00:57:20.609Z,7.10
2018-12-18T00:59:48.067Z,7.10
2018-12-18T01:02:15.528Z,7.10
2018-12-18T01:04:44.930Z,7.10
2018-12-18T01:07:12.406Z,7.10
2018-12-18T01:09:39.870Z,7.10
2018-12-18T01:12:07.332Z,7.00
2018-12-18T01:14:34.795Z,7.00
2018-12-18T01:17:02.306Z,7.00
2018-12-18T01:19:29.771Z,7.00
2018-12-18T01:21:57.271Z,7.00
2018-12-18T01:24:24.747Z,7.10
2018-12-18T01:26:52.219Z,7.10
2018-12-18T01:29:19.718Z,7.10
2018-12-18T01:31:47.181Z,7.10
2018-12-18T01:34:14.635Z,7.10
2018-12-18T01:36:42.107Z,7.10
2018-12-18T01:39:09.624Z,7.10
2018-12-18T01:41:37.187Z,7.10
2018-12-18T01:44:04.699Z,7.10
2018-12-18T01:46:32.162Z,7.10
2018-12-18T01:48:59.624Z,7.10
2018-12-18T01:51:27.084Z,7.20
2018-12-18T01:53:54.552Z,7.10
2018-12-18T01:56:22.016Z,7.10
2018-12-18T01:58:49.475Z,7.10
2018-12-18T02:01:16.939Z,7.10
2018-12-18T02:03:44.399Z,7.10
2018-12-18T02:06:11.908Z,7.10
2018-12-18T02:08:39.359Z,7.10
2018-12-18T02:11:06.837Z,7.10
2018-12-18T02:13:34.287Z,7.10
2018-12-18T02:16:01.739Z,7.10
2018-12-18T02:18:29.215Z,7.10
2018-12-18T02:20:56.682Z,7.10
2018-12-18T02:23:24.203Z,7.10
2018-12-18T02:25:51.964Z,7.10
2018-12-18T02:28:19.419Z,7.10
2018-12-18T02:30:46.863Z,7.10
2018-12-18T02:33:14.329Z,7.10
2018-12-18T02:35:41.804Z,7.10
2018-12-18T02:38:09.258Z,7.10
2018-12-18T02:40:36.788Z,7.10
2018-12-18T02:43:04.280Z,7.10
2018-12-18T02:45:31.721Z,7.10
2018-12-18T02:47:59.684Z,7.10
2018-12-18T02:50:27.149Z,7.10
2018-12-18T02:52:54.611Z,7.10
2018-12-18T02:55:22.139Z,7.20
2018-12-18T02:57:49.610Z,7.20
2018-12-18T03:00:17.110Z,7.10
2018-12-18T03:02:44.556Z,7.10
2018-12-18T03:05:12.126Z,7.00
2018-12-18T03:07:39.597Z,6.90
2018-12-18T03:10:07.091Z,6.80
2018-12-18T03:12:34.562Z,6.80
2018-12-18T03:15:02.020Z,6.80
2018-12-18T03:17:29.495Z,6.80
2018-12-18T03:19:56.939Z,6.90
2018-12-18T03:22:24.406Z,6.90
2018-12-18T03:24:51.887Z,6.90
2018-12-18T03:27:19.343Z,7.00
2018-12-18T03:29:46.825Z,7.00
2018-12-18T03:32:15.333Z,7.00
2018-12-18T03:34:43.217Z,7.00
2018-12-18T03:37:10.671Z,7.00
2018-12-18T03:39:38.143Z,7.00
2018-12-18T03:42:05.595Z,7.00
2018-12-18T03:44:33.058Z,6.90
2018-12-18T03:47:00.539Z,7.00
2018-12-18T03:49:28.017Z,7.00
2018-12-18T03:51:55.460Z,7.00
2018-12-18T03:54:22.913Z,7.10
2018-12-18T03:56:50.384Z,7.10
2018-12-18T03:59:18.139Z,7.10
2018-12-18T04:01:45.586Z,7.10
2018-12-18T04:04:13.052Z,7.10
2018-12-18T04:06:40.512Z,7.10
2018-12-18T04:09:08.042Z,7.10
2018-12-18T04:11:37.462Z,7.10
2018-12-18T04:14:04.924Z,7.00
2018-12-18T04:16:32.400Z,7.00
2018-12-18T04:18:59.841Z,7.00
2018-12-18T04:21:27.336Z,6.90
2018-12-18T04:23:54.798Z,7.00
2018-12-18T04:26:22.328Z,6.90
2018-12-18T04:28:49.794Z,6.80
2018-12-18T04:31:17.244Z,6.80
2018-12-18T04:33:44.711Z,6.80
2018-12-18T04:36:12.171Z,6.70
2018-12-18T04:38:39.676Z,6.80
2018-12-18T04:41:07.134Z,6.80
2018-12-18T04:43:34.930Z,6.70
2018-12-18T04:46:02.393Z,6.70
2018-12-18T04:48:29.836Z,6.70
2018-12-18T04:50:57.293Z,6.70
2018-12-18T04:53:24.827Z,6.70
2018-12-18T04:55:52.333Z,6.60
2018-12-18T04:58:19.799Z,6.60
2018-12-18T05:00:47.271Z,6.60
2018-12-18T05:03:14.723Z,6.60
2018-12-18T05:05:42.183Z,6.70
2018-12-18T05:08:09.648Z,6.70
2018-12-18T05:10:37.160Z,6.70
2018-12-18T05:13:04.619Z,6.70
2018-12-18T05:15:32.071Z,6.70
2018-12-18T05:17:59.541Z,6.70
2018-12-18T05:20:26.987Z,6.70
2018-12-18T05:22:54.458Z,6.60
2018-12-18T05:25:21.915Z,6.60
2018-12-18T05:27:49.393Z,6.60
2018-12-18T05:30:16.836Z,6.50
2018-12-18T05:32:44.309Z,6.50
2018-12-18T05:35:11.771Z,6.60
2018-12-18T05:37:39.243Z,6.50
2018-12-18T05:40:06.802Z,6.60
2018-12-18T05:42:48.027Z,6.60
2018-12-18T05:45:15.486Z,6.60
2018-12-18T05:47:42.943Z,6.60
2018-12-18T05:50:10.535Z,6.60
2018-12-18T05:52:37.988Z,6.70
2018-12-18T05:55:05.648Z,6.70
2018-12-18T05:57:33.115Z,6.70
2018-12-18T06:00:00.586Z,6.70
2018-12-18T06:02:28.049Z,6.70
2018-12-18T06:04:55.503Z,6.80
2018-12-18T06:07:22.950Z,6.80
2018-12-18T06:09:50.416Z,6.80
2018-12-18T06:12:17.864Z,6.80
2018-12-18T06:14:45.316Z,6.90
2018-12-18T06:17:12.805Z,6.90
2018-12-18T06:19:40.259Z,6.90
2018-12-18T06:22:07.710Z,7.00
2018-12-18T06:24:35.199Z,7.00
2018-12-18T06:27:02.665Z,7.00
2018-12-18T06:29:30.125Z,7.00
2018-12-18T06:31:57.596Z,6.90
2018-12-18T06:34:25.063Z,6.90
2018-12-18T06:36:52.530Z,7.00
2018-12-18T06:39:20.006Z,7.00
2018-12-18T06:41:47.493Z,6.90
2018-12-18T06:44:14.960Z,7.00
2018-12-18T06:46:42.413Z,6.90
2018-12-18T06:49:09.868Z,6.90
2018-12-18T06:51:37.343Z,6.70
2018-12-18T06:54:04.793Z,6.70
2018-12-18T06:56:32.255Z,6.60
2018-12-18T06:58:59.728Z,6.60
2018-12-18T07:01:27.202Z,6.60
2018-12-18T07:03:54.669Z,6.60
2018-12-18T07:06:22.161Z,6.60
2018-12-18T07:08:49.611Z,6.70
2018-12-18T07:11:17.064Z,6.70
2018-12-18T07:13:44.537Z,6.70
2018-12-18T07:16:11.992Z,6.70
2018-12-18T07:18:39.447Z,6.70
2018-12-18T07:21:06.891Z,6.70
2018-12-18T07:23:34.368Z,6.70
2018-12-18T07:26:01.877Z,6.70
2018-12-18T07:28:29.447Z,6.70
2018-12-18T07:30:56.991Z,6.70
2018-12-18T07:33:24.448Z,6.70
2018-12-18T07:35:51.922Z,6.70
2018-12-18T07:38:19.385Z,6.60
2018-12-18T07:40:46.850Z,6.60
2018-12-18T07:43:14.314Z,6.60
2018-12-18T07:45:41.780Z,6.50
2018-12-18T07:48:09.247Z,6.50
2018-12-18T07:50:36.688Z,6.50
2018-12-18T07:53:04.196Z,6.50
2018-12-18T07:55:31.668Z,6.50
2018-12-18T07:57:59.150Z,6.50
2018-12-18T08:00:26.624Z,6.50
2018-12-18T08:02:54.132Z,6.40
2018-12-18T08:05:21.676Z,6.40
2018-12-18T08:07:49.147Z,6.30
2018-12-18T08:10:16.661Z,6.30
2018-12-18T08:12:44.115Z,6.20
2018-12-18T08:15:11.586Z,6.00
2018-12-18T08:17:39.050Z,6.00
2018-12-18T08:20:06.686Z,5.90
2018-12-18T08:22:34.139Z,5.90
2018-12-18T08:25:01.610Z,5.90
2018-12-18T08:27:29.062Z,5.90
2018-12-18T08:29:56.526Z,5.90
2018-12-18T08:32:24.000Z,5.90
2018-12-18T08:34:51.476Z,5.90
2018-12-18T08:37:18.924Z,5.90
2018-12-18T08:39:46.376Z,5.80
2018-12-18T08:42:13.851Z,5.80
2018-12-18T08:44:41.304Z,5.80
2018-12-18T08:47:08.759Z,5.90
2018-12-18T08:49:36.211Z,5.90
2018-12-18T08:52:03.735Z,6.00
2018-12-18T08:54:31.191Z,6.00
2018-12-18T08:56:58.667Z,6.00
2018-12-18T08:59:26.134Z,6.00
2018-12-18T09:01:53.609Z,6.10
2018-12-18T09:04:21.067Z,6.10
2018-12-18T09:06:48.580Z,6.10
2018-12-18T09:09:16.040Z,6.10
2018-12-18T09:11:43.486Z,6.20
2018-12-18T09:14:10.945Z,6.20
2018-12-18T09:16:44.003Z,6.20
2018-12-18T09:19:11.459Z,6.30
2018-12-18T09:21:38.913Z,6.30
2018-12-18T09:24:06.409Z,6.30
2018-12-18T09:26:33.877Z,6.40
2018-12-18T09:29:01.344Z,6.50
2018-12-18T09:31:28.856Z,6.50
2018-12-18T09:33:56.300Z,6.50
2018-12-18T09:36:23.757Z,6.60
2018-12-18T09:41:59.150Z,6.70
2018-12-18T09:44:28.835Z,6.80
2018-12-18T09:46:56.273Z,6.90
2018-12-18T09:49:23.711Z,7.00
2018-12-18T09:51:51.182Z,7.00
2018-12-18T09:54:18.653Z,7.00
2018-12-18T09:56:50.095Z,7.00
2018-12-18T09:59:17.532Z,7.10
2018-12-18T10:01:44.972Z,7.20
2018-12-18T10:04:12.429Z,7.20
2018-12-18T10:06:39.899Z,7.30
2018-12-18T10:09:09.734Z,7.40
2018-12-18T10:11:36.979Z,7.40
2018-12-18T10:14:04.448Z,7.50
2018-12-18T10:16:31.890Z,7.50
2018-12-18T10:18:59.391Z,7.50
2018-12-18T10:21:26.854Z,7.50
2018-12-18T10:23:54.316Z,7.50
2018-12-18T10:26:21.808Z,7.50
2018-12-18T10:28:49.263Z,7.60
2018-12-18T10:31:16.709Z,7.60
2018-12-18T10:33:44.156Z,7.70
2018-12-18T10:36:11.663Z,7.80
2018-12-18T10:38:39.137Z,7.90
2018-12-18T10:41:06.592Z,7.90
2018-12-18T10:43:34.044Z,8.00
2018-12-18T10:46:01.567Z,8.10
2018-12-18T10:48:29.022Z,8.20
2018-12-18T10:50:56.460Z,8.20
2018-12-18T10:53:23.963Z,8.20
2018-12-18T10:55:51.451Z,8.30
2018-12-18T10:58:23.940Z,8.30
2018-12-18T11:00:54.127Z,8.50
2018-12-18T11:03:21.599Z,8.60
2018-12-18T11:05:49.043Z,8.70
2018-12-18T11:08:16.550Z,8.70
2018-12-18T11:10:44.001Z,8.90
2018-12-18T11:13:16.422Z,9.20
2018-12-18T11:15:44.389Z,9.70
2018-12-18T11:18:11.971Z,10.10
2018-12-18T11:20:38.995Z,10.50
2018-12-18T11:23:06.010Z,11.00
2018-12-18T11:25:33.063Z,11.20
2018-12-18T11:28:00.067Z,11.20
2018-12-18T11:30:27.092Z,11.10
2018-12-18T11:32:54.102Z,11.40
2018-12-18T11:35:21.601Z,11.60
2018-12-18T11:37:49.046Z,11.70
2018-12-18T11:40:16.505Z,11.90
2018-12-18T11:42:43.996Z,12.10
2018-12-18T11:45:11.462Z,12.20
2018-12-18T11:47:38.919Z,12.00
2018-12-18T11:50:06.660Z,12.00
2018-12-18T11:52:34.206Z,12.00
2018-12-18T11:55:01.675Z,12.00
2018-12-18T11:57:29.147Z,11.80
2018-12-18T11:59:56.622Z,11.80
2018-12-18T12:02:24.102Z,11.90
2018-12-18T12:04:51.560Z,12.00
2018-12-18T12:07:19.020Z,11.90
2018-12-18T12:09:46.480Z,11.80
2018-12-18T12:12:13.953Z,11.80
2018-12-18T12:14:41.557Z,11.70
2018-12-18T12:17:09.017Z,11.80
2018-12-18T12:19:36.472Z,11.80
2018-12-18T12:22:03.968Z,11.90
2018-12-18T12:24:31.478Z,11.90
2018-12-18T12:27:00.869Z,11.70
2018-12-18T12:29:28.335Z,11.80
2018-12-18T12:31:55.789Z,11.90
2018-12-18T12:34:23.279Z,12.00
2018-12-18T12:36:50.747Z,12.20
2018-12-18T12:39:18.192Z,12.20
2018-12-18T12:41:45.651Z,12.30
2018-12-18T12:44:13.136Z,12.30
2018-12-18T12:46:40.615Z,12.30
2018-12-18T12:49:10.020Z,12.30
2018-12-18T12:51:37.736Z,12.20
2018-12-18T12:54:05.217Z,12.10
2018-12-18T12:56:32.739Z,12.10
2018-12-18T12:59:00.251Z,11.90
2018-12-18T13:01:27.748Z,11.80
2018-12-18T13:03:55.218Z,11.60
2018-12-18T13:06:22.677Z,11.50
2018-12-18T13:08:50.146Z,11.30
2018-12-18T13:11:17.605Z,11.20
2018-12-18T13:13:45.067Z,11.10
2018-12-18T13:16:12.538Z,11.10
2018-12-18T13:18:40.050Z,11.00
2018-12-18T13:21:07.519Z,10.90
2018-12-18T13:23:35.015Z,10.90
2018-12-18T13:26:02.484Z,10.80
2018-12-18T13:28:29.933Z,10.80
2018-12-18T13:30:57.396Z,10.90
2018-12-18T13:33:24.862Z,11.00
2018-12-18T13:35:52.344Z,11.20
2018-12-18T13:38:19.871Z,11.40
2018-12-18T13:40:47.351Z,11.60
2018-12-18T13:43:14.821Z,11.70
2018-12-18T13:45:42.285Z,12.00
2018-12-18T13:48:09.744Z,12.10
2018-12-18T13:50:37.204Z,12.00
2018-12-18T13:53:04.711Z,11.90
2018-12-18T13:55:36.690Z,11.80
2018-12-18T13:58:01.705Z,11.80
2018-12-18T14:00:29.176Z,11.60
2018-12-18T14:02:56.703Z,11.60
2018-12-18T14:05:24.164Z,11.70
2018-12-18T14:07:51.636Z,11.80
2018-12-18T14:10:19.114Z,11.60
2018-12-18T14:12:52.304Z,11.50
2018-12-18T14:15:20.127Z,11.20
2018-12-18T14:17:47.729Z,10.90
2018-12-18T14:20:15.274Z,10.80
2018-12-18T14:22:42.759Z,10.60
2018-12-18T14:25:10.269Z,10.30
2018-12-18T14:27:37.738Z,10.10
2018-12-18T14:30:06.241Z,9.80
2018-12-18T14:32:33.770Z,9.80
2018-12-18T14:35:01.274Z,9.70
2018-12-18T14:37:28.742Z,9.60
2018-12-18T14:39:56.219Z,9.50
2018-12-18T14:42:23.652Z,9.30
2018-12-18T14:44:51.122Z,9.10
2018-12-18T14:47:18.557Z,9.00
2018-12-18T14:49:46.007Z,8.90
2018-12-18T14:52:13.448Z,8.70
2018-12-18T14:54:40.912Z,8.50
2018-12-18T14:57:08.366Z,8.40
2018-12-18T14:59:35.980Z,8.30
2018-12-18T15:02:03.507Z,8.20
2018-12-18T15:04:30.956Z,8.20
2018-12-18T15:07:02.764Z,8.00
2018-12-18T15:09:27.907Z,7.90
2018-12-18T15:11:55.352Z,7.90
2018-12-18T15:14:22.814Z,7.90
2018-12-18T15:16:50.272Z,7.70
2018-12-18T15:19:17.726Z,7.60
2018-12-18T15:21:45.195Z,7.60
2018-12-18T15:24:12.641Z,7.50
2018-12-18T15:26:40.102Z,7.50
2018-12-18T15:29:07.556Z,7.40
2018-12-18T15:31:35.079Z,7.30
2018-12-18T15:34:02.606Z,7.20
2018-12-18T15:36:30.044Z,7.20
2018-12-18T15:38:57.502Z,7.10
2018-12-18T15:41:24.974Z,7.00
2018-12-18T15:43:52.440Z,6.90
2018-12-18T15:46:19.883Z,6.90
2018-12-18T15:48:47.332Z,6.90
2018-12-18T15:51:14.828Z,6.90
2018-12-18T15:53:42.287Z,6.90
2018-12-18T15:56:09.742Z,6.90
2018-12-18T16:01:27.529Z,6.80
2018-12-18T16:03:54.981Z,6.80
2018-12-18T16:06:22.482Z,6.80
2018-12-18T16:08:50.200Z,6.90
2018-12-18T16:11:17.748Z,6.90
2018-12-18T16:13:45.193Z,7.00
2018-12-18T16:16:12.800Z,6.90
2018-12-18T16:18:40.308Z,6.70
2018-12-18T16:21:07.758Z,6.60
2018-12-18T16:23:35.273Z,6.50
2018-12-18T16:26:02.774Z,6.40
2018-12-18T16:28:30.225Z,6.30
2018-12-18T16:30:57.751Z,6.30
2018-12-18T16:33:25.248Z,6.20
2018-12-18T16:35:52.745Z,6.20
2018-12-18T16:38:20.282Z,6.20
2018-12-18T16:40:47.888Z,6.10
2018-12-18T16:43:15.327Z,6.00
2018-12-18T16:45:42.873Z,6.00
2018-12-18T16:48:10.400Z,6.00
2018-12-18T16:50:37.932Z,5.90
2018-12-18T16:53:05.441Z,5.90
2018-12-18T16:55:32.987Z,5.90
2018-12-18T16:58:00.454Z,5.80
2018-12-18T17:00:27.948Z,5.80
2018-12-18T17:02:55.499Z,5.80
2018-12-18T17:05:22.952Z,5.80
2018-12-18T17:07:50.486Z,5.70
2018-12-18T17:10:18.028Z,5.70
2018-12-18T17:12:51.335Z,5.70
2018-12-18T17:15:18.803Z,5.70
2018-12-18T17:17:46.337Z,5.70
2018-12-18T17:20:13.827Z,5.60
2018-12-18T17:22:41.356Z,5.50
2018-12-18T17:25:08.911Z,5.40
2018-12-18T17:27:36.390Z,5.40
2018-12-18T17:30:05.480Z,5.50
2018-12-18T17:32:32.973Z,5.50
2018-12-18T17:35:00.508Z,5.50
2018-12-18T17:37:28.064Z,5.40
2018-12-18T17:39:55.933Z,5.40
2018-12-18T17:42:23.484Z,5.30
2018-12-18T17:44:51.064Z,5.30
2018-12-18T17:47:18.630Z,5.30
2018-12-18T17:49:46.236Z,5.30
2018-12-18T17:52:13.705Z,5.30
2018-12-18T17:54:41.378Z,5.30
2018-12-18T17:57:08.836Z,5.30
2018-12-18T17:59:36.295Z,5.30
2018-12-18T18:02:03.900Z,5.30
2018-12-18T18:04:31.370Z,5.30
2018-12-18T18:06:58.913Z,5.30
2018-12-18T18:09:26.454Z,5.20
2018-12-18T18:11:54.005Z,5.20
2018-12-18T18:14:21.564Z,5.10
2018-12-18T18:16:49.104Z,5.10
2018-12-18T18:19:16.591Z,5.10
2018-12-18T18:21:44.146Z,5.10
2018-12-18T18:24:11.805Z,5.10
2018-12-18T18:26:39.307Z,5.00
2018-12-18T18:29:06.815Z,5.00
2018-12-18T18:31:34.462Z,4.90
2018-12-18T18:34:01.951Z,4.90
2018-12-18T18:36:29.406Z,4.90
2018-12-18T18:38:57.295Z,4.90
2018-12-18T18:41:24.815Z,4.80
2018-12-18T18:43:52.364Z,4.70
2018-12-18T18:46:19.822Z,4.70
2018-12-18T18:48:47.290Z,4.70
2018-12-18T18:51:14.855Z,4.70
2018-12-18T18:53:42.417Z,4.70
2018-12-18T18:56:10.000Z,4.70
2018-12-18T18:58:37.543Z,4.70
2018-12-18T19:01:05.127Z,4.60
2018-12-18T19:03:32.658Z,4.60
2018-12-18T19:06:00.139Z,4.60
2018-12-18T19:08:27.596Z,4.60
2018-12-18T19:10:55.057Z,4.60
2018-12-18T19:13:22.617Z,4.50
2018-12-18T19:15:50.139Z,4.50
2018-12-18T19:18:17.603Z,4.60
2018-12-18T19:20:45.149Z,4.50
2018-12-18T19:23:12.632Z,4.50
2018-12-18T19:25:40.182Z,4.50
2018-12-18T19:28:07.650Z,4.50
2018-12-18T19:30:35.200Z,4.50
2018-12-18T19:33:02.754Z,4.60
2018-12-18T19:35:30.319Z,4.60
2018-12-18T19:38:03.241Z,4.60
2018-12-18T19:40:27.269Z,4.60
2018-12-18T19:42:55.133Z,4.60
2018-12-18T19:45:22.656Z,4.60
2018-12-18T19:47:50.157Z,4.60
2018-12-18T19:50:17.743Z,4.70
2018-12-18T19:52:45.269Z,4.80
2018-12-18T19:55:12.732Z,4.80
2018-12-18T19:57:40.192Z,4.80
2018-12-18T20:00:10.118Z,4.80
2018-12-18T20:02:37.705Z,4.80
2018-12-18T20:05:05.842Z,4.70
2018-12-18T20:07:33.336Z,4.70
2018-12-18T20:10:00.871Z,4.70
2018-12-18T20:12:28.328Z,4.70
2018-12-18T20:14:55.874Z,4.70
2018-12-18T20:17:23.479Z,4.70
2018-12-18T20:19:51.189Z,4.80
2018-12-18T20:22:18.653Z,4.80
2018-12-18T20:24:46.117Z,4.80
2018-12-18T20:27:13.599Z,4.90
2018-12-18T20:29:41.251Z,4.90
2018-12-18T20:32:08.735Z,4.90
2018-12-18T20:34:36.262Z,5.00
2018-12-18T20:37:03.812Z,4.90
2018-12-18T20:39:31.260Z,4.90
2018-12-18T20:41:58.829Z,5.00
2018-12-18T20:44:26.426Z,4.90
2018-12-18T20:46:53.977Z,5.00
2018-12-18T20:49:21.520Z,4.90
2018-12-18T20:51:49.077Z,4.90
2018-12-18T20:54:16.545Z,4.90
2018-12-18T20:56:43.999Z,4.80
2018-12-18T20:59:11.533Z,4.90
2018-12-18T21:01:39.010Z,4.90
2018-12-18T21:04:06.669Z,4.80
2018-12-18T21:06:34.238Z,4.80
2018-12-18T21:09:01.703Z,4.80
2018-12-18T21:11:29.242Z,4.80
2018-12-18T21:13:56.789Z,4.80
2018-12-18T21:16:24.260Z,4.80
2018-12-18T21:18:51.829Z,4.80
2018-12-18T21:21:19.444Z,4.80
2018-12-18T21:23:46.943Z,4.70
2018-12-18T21:26:14.393Z,4.70
2018-12-18T21:28:41.959Z,4.70
2018-12-18T21:31:09.519Z,4.60
2018-12-18T21:33:37.078Z,4.70
2018-12-18T21:36:04.627Z,4.60
2018-12-18T21:38:32.096Z,4.60
2018-12-18T21:40:59.640Z,4.60
2018-12-18T21:43:27.100Z,4.60
2018-12-18T21:45:54.543Z,4.60
2018-12-18T21:48:22.023Z,4.60
2018-12-18T21:50:49.486Z,4.60
2018-12-18T21:53:17.146Z,4.60
2018-12-18T21:55:44.708Z,4.60
2018-12-18T21:58:12.148Z,4.60
2018-12-18T22:00:39.616Z,4.60
2018-12-18T22:03:07.168Z,4.60
2018-12-18T22:05:34.732Z,4.70
2018-12-18T22:08:02.190Z,4.70
2018-12-18T22:10:29.637Z,4.60
2018-12-18T22:12:57.095Z,4.70
2018-12-18T22:15:24.613Z,4.70
2018-12-18T22:17:52.073Z,4.80
2018-12-18T22:20:19.703Z,4.80
2018-12-18T22:22:47.235Z,4.80
2018-12-18T22:25:14.708Z,4.80
2018-12-18T22:27:43.434Z,4.80
2018-12-18T22:30:11.231Z,4.80
2018-12-18T22:32:38.821Z,4.80
2018-12-18T22:35:06.460Z,4.80
2018-12-18T22:37:33.919Z,4.90
2018-12-18T22:40:01.399Z,4.90
2018-12-18T22:42:28.839Z,5.00
2018-12-18T22:44:56.291Z,5.00
2018-12-18T22:47:23.750Z,5.00
2018-12-18T22:49:51.203Z,5.00
2018-12-18T22:52:18.729Z,5.00
2018-12-18T22:54:46.236Z,5.10
2018-12-18T22:57:13.791Z,5.10
2018-12-18T22:59:41.365Z,5.10
2018-12-18T23:02:14.510Z,5.20
2018-12-18T23:04:42.351Z,5.20
2018-12-18T23:07:09.971Z,5.10
2018-12-18T23:09:37.435Z,5.20
2018-12-18T23:12:04.988Z,5.20
2018-12-18T23:14:32.450Z,5.30
2018-12-18T23:17:00.014Z,5.20
2018-12-18T23:19:27.480Z,5.30
2018-12-18T23:21:55.024Z,5.30
2018-12-18T23:24:22.636Z,5.30
2018-12-18T23:26:50.133Z,5.30
2018-12-18T23:29:17.604Z,5.30
2018-12-18T23:31:45.063Z,5.30
2018-12-18T23:34:12.813Z,5.30
2018-12-18T23:36:40.276Z,5.40
2018-12-18T23:39:07.890Z,5.40
2018-12-18T23:41:36.669Z,5.40
2018-12-18T23:44:04.263Z,5.40
2018-12-18T23:46:31.730Z,5.40
2018-12-18T23:48:59.218Z,5.40
2018-12-18T23:51:26.795Z,5.40
2018-12-18T23:53:54.334Z,5.50
2018-12-18T23:56:21.894Z,5.50
2018-12-18T23:58:49.645Z,5.50
